sensor_id;sensor_type;location;lat;lon;timestamp;temperature;humidity
3268;DHT22;1646;52.450;13.326;2023-07-29T00:02:11;19.90;99.90
3268;DHT22;1646;52.450;13.326;2023-07-29T00:07:09;19.90;99.90
3268;DHT22;1646;52.450;13.326;2023-07-29T00:12:09;19.80;99.90
3268;DHT22;1646;52.450;13.326;2023-07-29T00:17:07;19.80;99.90
3268;DHT22;1646;52.450;13.326;2023-07-29T00:22:06;19.70;99.90
3268;DHT22;1646;52.450;13.326;2023-07-29T00:27:05;19.60;99.90
3268;DHT22;1646;52.450;13.326;2023-07-29T00:32:06;19.60;99.90
3268;DHT22;1646;52.450;13.326;2023-07-29T00:37:04;19.60;99.90
3268;DHT22;1646;52.450;13.326;2023-07-29T00:42:04;19.50;99.90
3268;DHT22;1646;52.450;13.326;2023-07-29T00:47:04;19.40;99.90
3268;DHT22;1646;52.450;13.326;2023-07-29T00:52:04;19.30;99.90
3268;DHT22;1646;52.450;13.326;2023-07-29T00:57:03;19.30;99.90
3268;DHT22;1646;52.450;13.326;2023-07-29T01:02:02;19.30;99.90
3268;DHT22;1646;52.450;13.326;2023-07-29T01:07:10;19.30;99.90
3268;DHT22;1646;52.450;13.326;2023-07-29T01:12:17;19.20;99.90
3268;DHT22;1646;52.450;13.326;2023-07-29T01:17:22;19.20;99.90
3268;DHT22;1646;52.450;13.326;2023-07-29T01:22:23;19.20;99.90
3268;DHT22;1646;52.450;13.326;2023-07-29T01:27:23;19.20;99.90
3268;DHT22;1646;52.450;13.326;2023-07-29T01:32:27;19.20;99.90
3268;DHT22;1646;52.450;13.326;2023-07-29T01:37:30;19.10;99.90
3268;DHT22;1646;52.450;13.326;2023-07-29T01:42:32;19.10;99.90
3268;DHT22;1646;52.450;13.326;2023-07-29T01:47:30;19.00;99.90
3268;DHT22;1646;52.450;13.326;2023-07-29T01:52:29;19.00;99.90
3268;DHT22;1646;52.450;13.326;2023-07-29T01:57:27;19.00;99.90
3268;DHT22;1646;52.450;13.326;2023-07-29T02:02:27;19.00;99.90
3268;DHT22;1646;52.450;13.326;2023-07-29T02:07:26;18.90;99.90
3268;DHT22;1646;52.450;13.326;2023-07-29T02:12:25;18.90;99.90
3268;DHT22;1646;52.450;13.326;2023-07-29T02:17:23;18.90;99.90
3268;DHT22;1646;52.450;13.326;2023-07-29T02:22:24;18.90;99.90
3268;DHT22;1646;52.450;13.326;2023-07-29T02:27:22;18.90;99.90
3268;DHT22;1646;52.450;13.326;2023-07-29T02:32:22;18.80;99.90
3268;DHT22;1646;52.450;13.326;2023-07-29T02:37:21;18.70;99.90
3268;DHT22;1646;52.450;13.326;2023-07-29T02:42:21;18.70;99.90
3268;DHT22;1646;52.450;13.326;2023-07-29T02:47:19;18.60;99.90
3268;DHT22;1646;52.450;13.326;2023-07-29T02:52:17;18.60;99.90
3268;DHT22;1646;52.450;13.326;2023-07-29T02:57:16;18.60;99.90
3268;DHT22;1646;52.450;13.326;2023-07-29T03:02:16;18.60;99.90
3268;DHT22;1646;52.450;13.326;2023-07-29T03:07:14;18.50;99.90
3268;DHT22;1646;52.450;13.326;2023-07-29T03:12:13;18.50;99.90
3268;DHT22;1646;52.450;13.326;2023-07-29T03:17:11;18.50;99.90
3268;DHT22;1646;52.450;13.326;2023-07-29T03:22:11;18.50;99.90
3268;DHT22;1646;52.450;13.326;2023-07-29T03:27:09;18.50;99.90
3268;DHT22;1646;52.450;13.326;2023-07-29T03:32:08;18.50;99.90
3268;DHT22;1646;52.450;13.326;2023-07-29T03:37:06;18.40;99.90
3268;DHT22;1646;52.450;13.326;2023-07-29T03:42:06;18.40;99.90
3268;DHT22;1646;52.450;13.326;2023-07-29T03:47:05;18.40;99.90
3268;DHT22;1646;52.450;13.326;2023-07-29T03:52:04;18.30;99.90
3268;DHT22;1646;52.450;13.326;2023-07-29T03:57:03;18.40;99.90
3268;DHT22;1646;52.450;13.326;2023-07-29T04:02:03;18.50;99.90
3268;DHT22;1646;52.450;13.326;2023-07-29T04:07:02;18.50;99.90
3268;DHT22;1646;52.450;13.326;2023-07-29T04:12:00;18.60;99.90
3268;DHT22;1646;52.450;13.326;2023-07-29T04:16:58;18.70;99.90
3268;DHT22;1646;52.450;13.326;2023-07-29T04:21:58;18.70;99.90
3268;DHT22;1646;52.450;13.326;2023-07-29T04:26:57;18.80;99.90
3268;DHT22;1646;52.450;13.326;2023-07-29T04:31:55;18.90;99.90
3268;DHT22;1646;52.450;13.326;2023-07-29T04:36:53;18.90;99.90
3268;DHT22;1646;52.450;13.326;2023-07-29T04:41:53;18.90;99.90
3268;DHT22;1646;52.450;13.326;2023-07-29T04:46:51;18.90;99.90
3268;DHT22;1646;52.450;13.326;2023-07-29T04:51:50;19.00;99.90
3268;DHT22;1646;52.450;13.326;2023-07-29T04:56:48;19.00;99.90
3268;DHT22;1646;52.450;13.326;2023-07-29T05:01:48;19.20;99.90
3268;DHT22;1646;52.450;13.326;2023-07-29T05:06:49;19.20;99.90
3268;DHT22;1646;52.450;13.326;2023-07-29T05:11:48;19.20;99.90
3268;DHT22;1646;52.450;13.326;2023-07-29T05:16:48;19.30;99.90
3268;DHT22;1646;52.450;13.326;2023-07-29T05:21:47;19.50;99.90
3268;DHT22;1646;52.450;13.326;2023-07-29T05:26:45;19.70;99.90
3268;DHT22;1646;52.450;13.326;2023-07-29T05:31:44;20.00;99.90
3268;DHT22;1646;52.450;13.326;2023-07-29T05:36:43;20.00;99.90
3268;DHT22;1646;52.450;13.326;2023-07-29T05:41:42;20.00;99.90
3268;DHT22;1646;52.450;13.326;2023-07-29T05:46:40;20.00;99.90
3268;DHT22;1646;52.450;13.326;2023-07-29T05:51:39;20.20;99.90
3268;DHT22;1646;52.450;13.326;2023-07-29T05:56:39;20.40;99.90
3268;DHT22;1646;52.450;13.326;2023-07-29T06:01:38;20.70;99.90
3268;DHT22;1646;52.450;13.326;2023-07-29T06:06:37;20.80;99.90
3268;DHT22;1646;52.450;13.326;2023-07-29T06:11:35;20.80;99.90
3268;DHT22;1646;52.450;13.326;2023-07-29T06:16:35;20.80;99.90
3268;DHT22;1646;52.450;13.326;2023-07-29T06:21:34;21.00;99.90
3268;DHT22;1646;52.450;13.326;2023-07-29T06:26:32;21.20;99.90
3268;DHT22;1646;52.450;13.326;2023-07-29T06:31:31;21.30;99.90
3268;DHT22;1646;52.450;13.326;2023-07-29T06:36:31;21.40;99.90
3268;DHT22;1646;52.450;13.326;2023-07-29T06:41:29;21.50;99.90
3268;DHT22;1646;52.450;13.326;2023-07-29T06:46:32;21.40;99.90
3268;DHT22;1646;52.450;13.326;2023-07-29T06:51:32;21.70;99.90
3268;DHT22;1646;52.450;13.326;2023-07-29T06:56:32;21.80;99.90
3268;DHT22;1646;52.450;13.326;2023-07-29T07:01:31;21.90;99.90
3268;DHT22;1646;52.450;13.326;2023-07-29T07:06:29;21.90;99.90
3268;DHT22;1646;52.450;13.326;2023-07-29T07:11:29;22.00;99.90
3268;DHT22;1646;52.450;13.326;2023-07-29T07:16:27;22.10;99.90
3268;DHT22;1646;52.450;13.326;2023-07-29T07:21:27;22.20;99.90
3268;DHT22;1646;52.450;13.326;2023-07-29T07:26:25;22.40;99.90
3268;DHT22;1646;52.450;13.326;2023-07-29T07:31:25;22.60;99.90
3268;DHT22;1646;52.450;13.326;2023-07-29T07:36:23;22.80;99.90
3268;DHT22;1646;52.450;13.326;2023-07-29T07:41:22;22.90;99.90
3268;DHT22;1646;52.450;13.326;2023-07-29T07:46:21;23.00;99.90
3268;DHT22;1646;52.450;13.326;2023-07-29T07:51:20;23.10;99.90
3268;DHT22;1646;52.450;13.326;2023-07-29T07:56:19;23.20;99.90
3268;DHT22;1646;52.450;13.326;2023-07-29T08:01:18;23.30;99.90
3268;DHT22;1646;52.450;13.326;2023-07-29T08:06:17;23.60;99.90
3268;DHT22;1646;52.450;13.326;2023-07-29T08:11:16;23.60;99.90
3268;DHT22;1646;52.450;13.326;2023-07-29T08:16:14;23.50;99.90
3268;DHT22;1646;52.450;13.326;2023-07-29T08:21:13;23.40;99.90
3268;DHT22;1646;52.450;13.326;2023-07-29T08:26:11;23.70;99.90
3268;DHT22;1646;52.450;13.326;2023-07-29T08:31:11;24.50;99.90
3268;DHT22;1646;52.450;13.326;2023-07-29T08:36:09;24.60;99.90
3268;DHT22;1646;52.450;13.326;2023-07-29T08:41:13;24.30;99.90
3268;DHT22;1646;52.450;13.326;2023-07-29T08:46:13;24.30;99.90
3268;DHT22;1646;52.450;13.326;2023-07-29T08:51:13;24.20;99.90
3268;DHT22;1646;52.450;13.326;2023-07-29T08:56:13;24.30;99.90
3268;DHT22;1646;52.450;13.326;2023-07-29T09:01:14;24.60;99.90
3268;DHT22;1646;52.450;13.326;2023-07-29T09:06:14;24.70;99.90
3268;DHT22;1646;52.450;13.326;2023-07-29T09:11:14;24.70;99.90
3268;DHT22;1646;52.450;13.326;2023-07-29T09:16:15;24.80;99.90
3268;DHT22;1646;52.450;13.326;2023-07-29T09:21:15;25.00;99.90
3268;DHT22;1646;52.450;13.326;2023-07-29T09:26:22;25.00;99.90
3268;DHT22;1646;52.450;13.326;2023-07-29T09:31:23;25.30;99.90
3268;DHT22;1646;52.450;13.326;2023-07-29T09:36:25;25.30;99.90
3268;DHT22;1646;52.450;13.326;2023-07-29T09:41:24;25.40;99.90
3268;DHT22;1646;52.450;13.326;2023-07-29T09:46:25;25.80;99.90
3268;DHT22;1646;52.450;13.326;2023-07-29T09:51:24;25.90;99.90
3268;DHT22;1646;52.450;13.326;2023-07-29T09:56:25;25.90;99.90
3268;DHT22;1646;52.450;13.326;2023-07-29T10:01:25;26.10;99.90
3268;DHT22;1646;52.450;13.326;2023-07-29T10:06:23;26.20;99.90
3268;DHT22;1646;52.450;13.326;2023-07-29T10:11:22;26.50;99.90
3268;DHT22;1646;52.450;13.326;2023-07-29T10:16:22;26.80;99.90
3268;DHT22;1646;52.450;13.326;2023-07-29T10:21:23;26.90;99.90
3268;DHT22;1646;52.450;13.326;2023-07-29T10:26:22;26.60;99.90
3268;DHT22;1646;52.450;13.326;2023-07-29T10:31:22;26.30;99.90
3268;DHT22;1646;52.450;13.326;2023-07-29T10:36:22;26.20;99.90
3268;DHT22;1646;52.450;13.326;2023-07-29T10:41:21;26.00;99.90
3268;DHT22;1646;52.450;13.326;2023-07-29T10:46:21;26.10;99.90
3268;DHT22;1646;52.450;13.326;2023-07-29T10:51:25;26.30;99.90
3268;DHT22;1646;52.450;13.326;2023-07-29T10:56:30;26.30;99.90
3268;DHT22;1646;52.450;13.326;2023-07-29T11:01:30;25.80;99.90
3268;DHT22;1646;52.450;13.326;2023-07-29T11:06:30;25.50;99.90
3268;DHT22;1646;52.450;13.326;2023-07-29T11:11:29;25.10;99.90
3268;DHT22;1646;52.450;13.326;2023-07-29T11:16:27;24.50;99.90
3268;DHT22;1646;52.450;13.326;2023-07-29T11:21:25;23.30;99.90
3268;DHT22;1646;52.450;13.326;2023-07-29T11:26:27;22.70;99.90
3268;DHT22;1646;52.450;13.326;2023-07-29T11:31:39;22.60;99.90
3268;DHT22;1646;52.450;13.326;2023-07-29T11:36:37;22.70;99.90
3268;DHT22;1646;52.450;13.326;2023-07-29T11:41:37;22.90;99.90
3268;DHT22;1646;52.450;13.326;2023-07-29T11:46:36;23.10;99.90
3268;DHT22;1646;52.450;13.326;2023-07-29T11:51:35;23.20;99.90
3268;DHT22;1646;52.450;13.326;2023-07-29T11:56:34;23.30;99.90
3268;DHT22;1646;52.450;13.326;2023-07-29T12:01:34;23.10;99.90
3268;DHT22;1646;52.450;13.326;2023-07-29T12:06:33;23.10;99.90
3268;DHT22;1646;52.450;13.326;2023-07-29T12:11:33;23.20;99.90
3268;DHT22;1646;52.450;13.326;2023-07-29T12:16:31;23.20;99.90
3268;DHT22;1646;52.450;13.326;2023-07-29T12:21:33;23.00;99.90
3268;DHT22;1646;52.450;13.326;2023-07-29T12:26:33;22.80;99.90
3268;DHT22;1646;52.450;13.326;2023-07-29T12:31:32;22.80;99.90
3268;DHT22;1646;52.450;13.326;2023-07-29T12:36:42;22.70;99.90
3268;DHT22;1646;52.450;13.326;2023-07-29T12:41:41;22.90;99.90
3268;DHT22;1646;52.450;13.326;2023-07-29T12:46:39;23.30;99.90
3268;DHT22;1646;52.450;13.326;2023-07-29T12:51:38;23.90;99.90
3268;DHT22;1646;52.450;13.326;2023-07-29T12:56:37;24.40;99.90
3268;DHT22;1646;52.450;13.326;2023-07-29T13:01:36;24.40;99.90
3268;DHT22;1646;52.450;13.326;2023-07-29T13:06:34;24.40;99.90
3268;DHT22;1646;52.450;13.326;2023-07-29T13:11:33;24.40;99.90
3268;DHT22;1646;52.450;13.326;2023-07-29T13:16:33;24.40;99.90
3268;DHT22;1646;52.450;13.326;2023-07-29T13:21:32;24.20;99.90
3268;DHT22;1646;52.450;13.326;2023-07-29T13:26:30;23.90;99.90
3268;DHT22;1646;52.450;13.326;2023-07-29T13:31:28;24.00;99.90
3268;DHT22;1646;52.450;13.326;2023-07-29T13:36:29;24.60;99.90
3268;DHT22;1646;52.450;13.326;2023-07-29T13:41:27;25.10;99.90
3268;DHT22;1646;52.450;13.326;2023-07-29T13:46:25;25.60;99.90
3268;DHT22;1646;52.450;13.326;2023-07-29T13:51:24;25.60;99.90
3268;DHT22;1646;52.450;13.326;2023-07-29T13:56:23;26.00;99.90
3268;DHT22;1646;52.450;13.326;2023-07-29T14:01:22;25.70;99.90
3268;DHT22;1646;52.450;13.326;2023-07-29T14:06:20;25.30;99.90
3268;DHT22;1646;52.450;13.326;2023-07-29T14:11:40;25.30;99.90
3268;DHT22;1646;52.450;13.326;2023-07-29T14:16:38;25.60;99.90
3268;DHT22;1646;52.450;13.326;2023-07-29T14:21:37;25.50;99.90
3268;DHT22;1646;52.450;13.326;2023-07-29T14:26:35;25.50;99.90
3268;DHT22;1646;52.450;13.326;2023-07-29T14:31:35;25.40;99.90
3268;DHT22;1646;52.450;13.326;2023-07-29T14:36:33;25.50;99.90
3268;DHT22;1646;52.450;13.326;2023-07-29T14:41:32;25.70;99.90
3268;DHT22;1646;52.450;13.326;2023-07-29T14:46:30;25.50;99.90
3268;DHT22;1646;52.450;13.326;2023-07-29T14:51:30;25.30;99.90
3268;DHT22;1646;52.450;13.326;2023-07-29T14:56:28;25.30;99.90
3268;DHT22;1646;52.450;13.326;2023-07-29T15:01:27;25.10;99.90
3268;DHT22;1646;52.450;13.326;2023-07-29T15:06:25;24.80;99.90
3268;DHT22;1646;52.450;13.326;2023-07-29T15:11:25;24.60;99.90
3268;DHT22;1646;52.450;13.326;2023-07-29T15:16:24;24.50;99.90
3268;DHT22;1646;52.450;13.326;2023-07-29T15:21:22;24.40;99.90
3268;DHT22;1646;52.450;13.326;2023-07-29T15:26:20;24.30;99.90
3268;DHT22;1646;52.450;13.326;2023-07-29T15:31:20;24.30;99.90
3268;DHT22;1646;52.450;13.326;2023-07-29T15:36:18;24.20;99.90
3268;DHT22;1646;52.450;13.326;2023-07-29T15:41:17;24.00;99.90
3268;DHT22;1646;52.450;13.326;2023-07-29T15:46:15;23.10;99.90
3268;DHT22;1646;52.450;13.326;2023-07-29T15:51:15;22.30;99.90
3268;DHT22;1646;52.450;13.326;2023-07-29T15:56:13;21.80;99.90
3268;DHT22;1646;52.450;13.326;2023-07-29T16:01:11;21.30;99.90
3268;DHT22;1646;52.450;13.326;2023-07-29T16:06:10;21.80;99.90
3268;DHT22;1646;52.450;13.326;2023-07-29T16:11:09;22.60;99.90
3268;DHT22;1646;52.450;13.326;2023-07-29T16:16:08;23.00;99.90
3268;DHT22;1646;52.450;13.326;2023-07-29T16:21:06;23.20;99.90
3268;DHT22;1646;52.450;13.326;2023-07-29T16:26:04;23.20;99.90
3268;DHT22;1646;52.450;13.326;2023-07-29T16:31:04;23.00;99.90
3268;DHT22;1646;52.450;13.326;2023-07-29T16:36:20;23.10;99.90
3268;DHT22;1646;52.450;13.326;2023-07-29T16:41:19;23.30;99.90
3268;DHT22;1646;52.450;13.326;2023-07-29T16:46:38;23.30;99.90
3268;DHT22;1646;52.450;13.326;2023-07-29T16:51:37;23.40;99.90
3268;DHT22;1646;52.450;13.326;2023-07-29T16:56:35;23.60;99.90
3268;DHT22;1646;52.450;13.326;2023-07-29T17:01:34;23.70;99.90
3268;DHT22;1646;52.450;13.326;2023-07-29T17:06:34;23.70;99.90
3268;DHT22;1646;52.450;13.326;2023-07-29T17:11:33;23.70;99.90
3268;DHT22;1646;52.450;13.326;2023-07-29T17:16:31;23.70;99.90
3268;DHT22;1646;52.450;13.326;2023-07-29T17:21:29;24.00;99.90
3268;DHT22;1646;52.450;13.326;2023-07-29T17:26:29;24.20;99.90
3268;DHT22;1646;52.450;13.326;2023-07-29T17:31:28;24.20;99.90
3268;DHT22;1646;52.450;13.326;2023-07-29T17:36:26;24.00;99.90
3268;DHT22;1646;52.450;13.326;2023-07-29T17:41:25;23.70;99.90
3268;DHT22;1646;52.450;13.326;2023-07-29T17:46:24;23.60;99.90
3268;DHT22;1646;52.450;13.326;2023-07-29T17:51:23;23.70;99.90
3268;DHT22;1646;52.450;13.326;2023-07-29T17:56:21;23.60;99.90
3268;DHT22;1646;52.450;13.326;2023-07-29T18:01:20;23.40;99.90
3268;DHT22;1646;52.450;13.326;2023-07-29T18:06:20;23.20;99.90
3268;DHT22;1646;52.450;13.326;2023-07-29T18:11:18;23.00;99.90
3268;DHT22;1646;52.450;13.326;2023-07-29T18:16:17;23.00;99.90
3268;DHT22;1646;52.450;13.326;2023-07-29T18:21:17;22.90;99.90
3268;DHT22;1646;52.450;13.326;2023-07-29T18:26:17;22.90;99.90
3268;DHT22;1646;52.450;13.326;2023-07-29T18:31:15;22.80;99.90
3268;DHT22;1646;52.450;13.326;2023-07-29T18:36:13;22.70;99.90
3268;DHT22;1646;52.450;13.326;2023-07-29T18:41:13;22.50;99.90
3268;DHT22;1646;52.450;13.326;2023-07-29T18:46:13;22.30;99.90
3268;DHT22;1646;52.450;13.326;2023-07-29T18:51:12;22.20;99.90
3268;DHT22;1646;52.450;13.326;2023-07-29T18:56:10;22.00;99.90
3268;DHT22;1646;52.450;13.326;2023-07-29T19:01:08;21.90;99.90
3268;DHT22;1646;52.450;13.326;2023-07-29T19:06:09;21.80;99.90
3268;DHT22;1646;52.450;13.326;2023-07-29T19:11:07;21.70;99.90
3268;DHT22;1646;52.450;13.326;2023-07-29T19:16:05;21.70;99.90
3268;DHT22;1646;52.450;13.326;2023-07-29T19:21:06;21.70;99.90
3268;DHT22;1646;52.450;13.326;2023-07-29T19:26:06;21.60;99.90
3268;DHT22;1646;52.450;13.326;2023-07-29T19:31:04;21.60;99.90
3268;DHT22;1646;52.450;13.326;2023-07-29T19:36:04;21.50;99.90
3268;DHT22;1646;52.450;13.326;2023-07-29T19:41:03;21.40;99.90
3268;DHT22;1646;52.450;13.326;2023-07-29T19:46:03;21.40;99.90
3268;DHT22;1646;52.450;13.326;2023-07-29T19:51:04;21.30;99.90
3268;DHT22;1646;52.450;13.326;2023-07-29T19:56:04;21.30;99.90
3268;DHT22;1646;52.450;13.326;2023-07-29T20:01:03;21.20;99.90
3268;DHT22;1646;52.450;13.326;2023-07-29T20:06:02;21.20;99.90
3268;DHT22;1646;52.450;13.326;2023-07-29T20:11:00;21.10;99.90
3268;DHT22;1646;52.450;13.326;2023-07-29T20:15:59;21.10;99.90
3268;DHT22;1646;52.450;13.326;2023-07-29T20:20:58;21.00;99.90
3268;DHT22;1646;52.450;13.326;2023-07-29T20:25:57;21.00;99.90
3268;DHT22;1646;52.450;13.326;2023-07-29T20:30:55;20.90;99.90
3268;DHT22;1646;52.450;13.326;2023-07-29T20:35:55;20.80;99.90
3268;DHT22;1646;52.450;13.326;2023-07-29T20:40:56;20.80;99.90
3268;DHT22;1646;52.450;13.326;2023-07-29T20:45:54;20.80;99.90
3268;DHT22;1646;52.450;13.326;2023-07-29T20:50:53;20.70;99.90
3268;DHT22;1646;52.450;13.326;2023-07-29T20:55:52;20.70;99.90
3268;DHT22;1646;52.450;13.326;2023-07-29T21:00:54;20.70;99.90
3268;DHT22;1646;52.450;13.326;2023-07-29T21:05:53;20.60;99.90
3268;DHT22;1646;52.450;13.326;2023-07-29T21:10:51;20.60;99.90
3268;DHT22;1646;52.450;13.326;2023-07-29T21:15:50;20.60;99.90
3268;DHT22;1646;52.450;13.326;2023-07-29T21:20:50;20.50;99.90
3268;DHT22;1646;52.450;13.326;2023-07-29T21:25:50;20.50;99.90
3268;DHT22;1646;52.450;13.326;2023-07-29T21:30:49;20.50;99.90
3268;DHT22;1646;52.450;13.326;2023-07-29T21:35:49;20.40;99.90
3268;DHT22;1646;52.450;13.326;2023-07-29T21:40:48;20.40;99.90
3268;DHT22;1646;52.450;13.326;2023-07-29T21:45:47;20.30;99.90
3268;DHT22;1646;52.450;13.326;2023-07-29T21:50:45;20.30;99.90
3268;DHT22;1646;52.450;13.326;2023-07-29T21:55:48;20.30;99.90
3268;DHT22;1646;52.450;13.326;2023-07-29T22:00:50;20.20;99.90
3268;DHT22;1646;52.450;13.326;2023-07-29T22:05:49;20.10;99.90
3268;DHT22;1646;52.450;13.326;2023-07-29T22:10:50;20.10;99.90
3268;DHT22;1646;52.450;13.326;2023-07-29T22:15:48;20.00;99.90
3268;DHT22;1646;52.450;13.326;2023-07-29T22:20:52;20.00;99.90
3268;DHT22;1646;52.450;13.326;2023-07-29T22:25:59;19.90;99.90
3268;DHT22;1646;52.450;13.326;2023-07-29T22:30:58;19.90;99.90
3268;DHT22;1646;52.450;13.326;2023-07-29T22:35:58;19.90;99.90
3268;DHT22;1646;52.450;13.326;2023-07-29T22:40:57;19.90;99.90
3268;DHT22;1646;52.450;13.326;2023-07-29T22:45:57;19.90;99.90
3268;DHT22;1646;52.450;13.326;2023-07-29T22:50:56;19.90;99.90
3268;DHT22;1646;52.450;13.326;2023-07-29T22:55:54;19.90;99.90
3268;DHT22;1646;52.450;13.326;2023-07-29T23:00:55;19.80;99.90
3268;DHT22;1646;52.450;13.326;2023-07-29T23:05:54;19.80;99.90
3268;DHT22;1646;52.450;13.326;2023-07-29T23:10:52;19.80;99.90
3268;DHT22;1646;52.450;13.326;2023-07-29T23:15:50;19.70;99.90
3268;DHT22;1646;52.450;13.326;2023-07-29T23:20:50;19.60;99.90
3268;DHT22;1646;52.450;13.326;2023-07-29T23:25:50;19.50;99.90
3268;DHT22;1646;52.450;13.326;2023-07-29T23:30:48;19.50;99.90
3268;DHT22;1646;52.450;13.326;2023-07-29T23:35:47;19.50;99.90
3268;DHT22;1646;52.450;13.326;2023-07-29T23:40:47;19.50;99.90
3268;DHT22;1646;52.450;13.326;2023-07-29T23:45:45;19.40;99.90
3268;DHT22;1646;52.450;13.326;2023-07-29T23:50:44;19.30;99.90
3268;DHT22;1646;52.450;13.326;2023-07-29T23:55:42;19.30;99.90
